Terminal Aerodrome Forecast
Issued by NWS

Home | Current Version | Previous Version | Text Only | Print | Product List | Glossary On
Versions: 1 2 3 4 5 6 7 8 9 10 11 12 13 14
000
FTUS44 KLZK 312300
TAFPBF
TAF
KPBF 312335Z 0100/0124 09005KT P6SM -RA SCT025 OVC050
     FM010200 08003KT P6SM VCSH SCT020 OVC040
     FM010500 VRB03KT 6SM BR VCSH SCT025 OVC040
      TEMPO 0105/0109 3SM BR BKN025
     FM010900 VRB03KT 3SM BR SCT010 OVC025
      TEMPO 0109/0112 1SM BR BKN005
     FM011500 09005KT P6SM SCT020 BKN035 BKN250=

USA.gov is the U.S. government's official web portal to all federal, state and local government web resources and services.